Time;durP1;ratioP1;P1;durP2;ratioP2;P2;SDS_P1;SDS_P2;PMS_P1;PMS_P2;Temp;Humidity;BMP_temperature;BMP_pressure;BME280_temperature;BME280_humidity;BME280_pressure;Samples;Min_cycle;Max_cycle;Signal;HPM_P1;HPM_P2
2023/06/28 00:01:19;;;;;;;1999.90;999.90;;;11.00;99.90;;;;;;5058977;28;20028;-72
2023/06/28 00:03:48;;;;;;;1999.90;999.90;;;11.00;99.90;;;;;;5053429;28;20112;-73
2023/06/28 00:06:15;;;;;;;1999.90;999.90;;;11.00;99.90;;;;;;5054683;28;20044;-72
2023/06/28 00:08:45;;;;;;;1999.90;999.90;;;10.90;99.90;;;;;;5053660;28;20033;-73
2023/06/28 00:11:13;;;;;;;1999.90;999.90;;;10.90;99.90;;;;;;5054394;28;20028;-73
2023/06/28 00:13:40;;;;;;;1999.90;999.90;;;11.00;99.90;;;;;;5053260;28;20116;-71
2023/06/28 00:16:08;;;;;;;1999.90;999.90;;;11.00;99.90;;;;;;5057519;28;20105;-72
2023/06/28 00:18:36;;;;;;;1999.90;999.90;;;10.90;99.90;;;;;;5049297;28;20025;-71
2023/06/28 00:21:03;;;;;;;1999.90;999.90;;;10.90;99.90;;;;;;5065087;28;20041;-73
2023/06/28 00:23:31;;;;;;;1999.90;999.90;;;11.00;99.90;;;;;;5049038;28;20110;-72
2023/06/28 00:25:59;;;;;;;1999.90;999.90;;;11.00;99.90;;;;;;5052302;28;20029;-73
2023/06/28 00:28:26;;;;;;;1999.90;999.90;;;11.10;99.90;;;;;;5056662;28;20472;-74
2023/06/28 00:30:53;;;;;;;1999.90;999.90;;;11.10;99.90;;;;;;5052489;28;20114;-74
2023/06/28 00:33:21;;;;;;;1999.90;999.90;;;11.10;99.90;;;;;;5056139;28;20040;-73
2023/06/28 00:35:49;;;;;;;1999.90;999.90;;;11.10;99.90;;;;;;5053910;28;20029;-73
2023/06/28 00:38:16;;;;;;;1999.90;999.90;;;11.20;99.90;;;;;;5059867;28;20056;-74
2023/06/28 00:40:44;;;;;;;1999.90;999.90;;;11.20;99.90;;;;;;5055030;28;20435;-73
2023/06/28 00:43:11;;;;;;;1999.90;999.90;;;11.20;99.90;;;;;;5056822;28;20037;-73
2023/06/28 00:45:38;;;;;;;1999.90;999.90;;;11.30;99.90;;;;;;5048261;28;20017;-72
2023/06/28 00:48:07;;;;;;;1999.90;999.90;;;11.30;99.90;;;;;;5056574;28;20082;-73
2023/06/28 00:50:36;;;;;;;1999.90;999.90;;;11.20;99.90;;;;;;5057236;28;20081;-74
2023/06/28 00:53:05;;;;;;;1999.90;999.90;;;11.30;99.90;;;;;;5053669;28;20028;-74
2023/06/28 00:55:33;;;;;;;1999.90;999.90;;;11.20;99.90;;;;;;5053177;28;20020;-74
2023/06/28 00:58:01;;;;;;;1999.90;999.90;;;11.20;99.90;;;;;;5059968;28;20025;-74
2023/06/28 01:00:28;;;;;;;1999.90;999.90;;;11.30;99.90;;;;;;5053557;28;20063;-73
2023/06/28 01:02:56;;;;;;;1999.90;999.90;;;11.30;99.90;;;;;;5059860;28;20024;-73
2023/06/28 01:05:23;;;;;;;1999.90;999.90;;;11.30;99.90;;;;;;5050402;28;20375;-72
2023/06/28 01:07:54;;;;;;;1999.90;999.90;;;11.40;99.90;;;;;;5057811;28;20096;-73
2023/06/28 01:10:22;;;;;;;1999.90;999.90;;;11.40;99.90;;;;;;5051772;28;20067;-72
2023/06/28 01:12:49;;;;;;;1999.90;999.90;;;11.40;99.90;;;;;;5055191;28;20570;-72
2023/06/28 01:15:17;;;;;;;1999.90;999.90;;;11.50;99.90;;;;;;5053813;28;20055;-72
2023/06/28 01:17:45;;;;;;;1999.90;999.90;;;11.50;99.90;;;;;;5049940;28;20120;-71
2023/06/28 01:20:12;;;;;;;1999.90;999.90;;;11.50;99.90;;;;;;5053093;28;21792;-71
2023/06/28 01:22:40;;;;;;;1999.90;999.90;;;11.50;99.90;;;;;;5050510;28;20048;-71
2023/06/28 01:25:10;;;;;;;1999.90;999.90;;;11.50;99.90;;;;;;5051574;28;20029;-74
2023/06/28 01:27:44;;;;;;;1999.90;999.90;;;11.50;99.90;;;;;;5067407;28;20157;-72
2023/06/28 01:30:14;;;;;;;1999.90;999.90;;;11.50;99.90;;;;;;5050211;28;20047;-72
2023/06/28 01:32:43;;;;;;;1999.90;999.90;;;11.50;99.90;;;;;;5068031;28;20085;-71
2023/06/28 01:35:14;;;;;;;1999.90;999.90;;;11.50;99.90;;;;;;5054921;28;20135;-71
2023/06/28 01:37:42;;;;;;;1999.90;999.90;;;11.50;99.90;;;;;;5075514;28;20048;-73
2023/06/28 01:40:11;;;;;;;1999.90;999.90;;;11.50;99.90;;;;;;5059752;28;20645;-75
2023/06/28 01:42:40;;;;;;;1999.90;999.90;;;11.50;99.90;;;;;;5060546;28;20037;-73
2023/06/28 01:45:08;;;;;;;1999.90;999.90;;;11.50;99.90;;;;;;5052818;28;20033;-73
2023/06/28 01:47:36;;;;;;;1999.90;999.90;;;11.50;99.90;;;;;;5058918;28;20105;-72
2023/06/28 01:50:03;;;;;;;1999.90;999.90;;;11.50;99.90;;;;;;5049789;28;20045;-70
2023/06/28 01:52:31;;;;;;;1999.90;999.90;;;11.50;99.90;;;;;;5059802;28;20032;-72
2023/06/28 01:54:58;;;;;;;1999.90;999.90;;;11.50;99.90;;;;;;5050160;28;20028;-71
2023/06/28 01:57:26;;;;;;;1999.90;999.90;;;11.50;99.90;;;;;;5057133;28;20066;-71
2023/06/28 01:59:54;;;;;;;1999.90;999.90;;;11.50;99.90;;;;;;5061164;28;21934;-71
2023/06/28 02:02:22;;;;;;;1999.90;999.90;;;11.50;99.90;;;;;;5059571;28;20041;-71
2023/06/28 02:04:49;;;;;;;1999.90;999.90;;;11.50;99.90;;;;;;5058768;28;20479;-70
2023/06/28 02:07:17;;;;;;;1999.90;999.90;;;11.40;99.90;;;;;;5060224;28;20044;-71
2023/06/28 02:09:44;;;;;;;1999.90;999.90;;;11.40;99.90;;;;;;5049946;28;20063;-70
2023/06/28 02:12:12;;;;;;;1999.90;999.90;;;11.40;99.90;;;;;;5052886;28;20519;-70
2023/06/28 02:14:39;;;;;;;1999.90;999.90;;;11.30;99.90;;;;;;5056384;28;20036;-70
2023/06/28 02:17:15;;;;;;;1999.90;999.90;;;11.30;99.90;;;;;;5065224;28;20035;-71
2023/06/28 02:19:44;;;;;;;1999.90;999.90;;;11.20;99.90;;;;;;5049850;28;20020;-70
2023/06/28 02:22:11;;;;;;;1999.90;999.90;;;11.20;99.90;;;;;;5053732;28;20052;-71
2023/06/28 02:24:38;;;;;;;1999.90;999.90;;;11.20;99.90;;;;;;5051177;28;20036;-71
2023/06/28 02:27:08;;;;;;;1999.90;999.90;;;11.20;99.90;;;;;;5050573;28;20029;-70
2023/06/28 02:29:36;;;;;;;1999.90;999.90;;;11.20;99.90;;;;;;5059231;28;20425;-70
2023/06/28 02:32:04;;;;;;;1999.90;999.90;;;11.20;99.90;;;;;;5062308;28;20380;-70
2023/06/28 02:34:31;;;;;;;1999.90;999.90;;;11.20;99.90;;;;;;5052885;28;20025;-69
2023/06/28 02:36:59;;;;;;;1999.90;999.90;;;11.20;99.90;;;;;;5056824;28;20044;-70
2023/06/28 02:39:26;;;;;;;1999.90;999.90;;;11.20;99.90;;;;;;5057800;28;20388;-69
2023/06/28 02:41:53;;;;;;;1999.90;999.90;;;11.20;99.90;;;;;;5047097;28;20924;-69
2023/06/28 02:44:21;;;;;;;1999.90;999.90;;;11.20;99.90;;;;;;5055853;28;20017;-70
2023/06/28 02:46:48;;;;;;;1999.90;999.90;;;11.20;99.90;;;;;;5047872;28;20029;-70
2023/06/28 02:49:15;;;;;;;1999.90;999.90;;;11.10;99.90;;;;;;5056768;28;20028;-69
2023/06/28 02:51:43;;;;;;;1999.90;999.90;;;11.10;99.90;;;;;;5057181;28;20553;-70
2023/06/28 02:54:10;;;;;;;1999.90;999.90;;;11.10;99.90;;;;;;5055983;28;20162;-70
2023/06/28 02:56:37;;;;;;;1999.90;999.90;;;11.00;99.90;;;;;;5049736;28;20438;-71
2023/06/28 02:59:04;;;;;;;1999.90;999.90;;;11.00;99.90;;;;;;5048493;28;20017;-70
2023/06/28 03:01:32;;;;;;;1999.90;999.90;;;11.00;99.90;;;;;;5048061;28;20041;-70
2023/06/28 03:03:59;;;;;;;1999.90;999.90;;;11.00;99.90;;;;;;5052999;28;20479;-71
2023/06/28 03:06:26;;;;;;;1999.90;999.90;;;11.00;99.90;;;;;;5053584;28;20044;-71
2023/06/28 03:08:54;;;;;;;1999.90;999.90;;;11.10;99.90;;;;;;5051851;28;20023;-70
2023/06/28 03:11:21;;;;;;;1999.90;999.90;;;11.00;99.90;;;;;;5052573;28;20029;-70
2023/06/28 03:13:48;;;;;;;1999.90;999.90;;;11.10;99.90;;;;;;5055058;28;20104;-69
2023/06/28 03:16:16;;;;;;;1999.90;999.90;;;11.10;99.90;;;;;;5054199;28;20472;-70
2023/06/28 03:18:43;;;;;;;1999.90;999.90;;;11.10;99.90;;;;;;5064696;28;20735;-70
2023/06/28 03:21:10;;;;;;;1999.90;999.90;;;11.10;99.90;;;;;;5038850;28;20407;-72
2023/06/28 03:23:38;;;;;;;1999.90;999.90;;;11.00;99.90;;;;;;5052956;28;20029;-71
2023/06/28 03:26:05;;;;;;;1999.90;999.90;;;11.00;99.90;;;;;;5049118;28;20032;-70
2023/06/28 03:28:33;;;;;;;1999.90;999.90;;;11.00;99.90;;;;;;5046932;28;20112;-71
2023/06/28 03:31:01;;;;;;;1999.90;999.90;;;11.00;99.90;;;;;;5043608;28;20025;-71
2023/06/28 03:33:28;;;;;;;1999.90;999.90;;;11.00;99.90;;;;;;5051317;28;20025;-71
2023/06/28 03:35:55;;;;;;;1999.90;999.90;;;11.10;99.90;;;;;;5047590;28;20479;-71
2023/06/28 03:38:23;;;;;;;1999.90;999.90;;;11.00;99.90;;;;;;5051650;28;20025;-71
2023/06/28 03:40:50;;;;;;;1999.90;999.90;;;10.90;99.90;;;;;;5046472;28;20879;-70
2023/06/28 03:43:17;;;;;;;1999.90;999.90;;;10.90;99.90;;;;;;5048086;28;20032;-69
2023/06/28 03:45:45;;;;;;;1999.90;999.90;;;11.00;99.90;;;;;;5047872;28;20044;-69
2023/06/28 03:48:12;;;;;;;1999.90;999.90;;;11.00;99.90;;;;;;5053012;28;21708;-69
2023/06/28 03:50:39;;;;;;;1999.90;999.90;;;11.10;99.90;;;;;;5046211;28;20032;-68
2023/06/28 03:53:07;;;;;;;1999.90;999.90;;;11.10;99.90;;;;;;5052573;28;20021;-70
2023/06/28 03:55:34;;;;;;;1999.90;999.90;;;11.10;99.90;;;;;;5047925;28;20025;-69
2023/06/28 03:58:02;;;;;;;1999.90;999.90;;;11.10;99.90;;;;;;5052104;28;20025;-70
2023/06/28 04:00:29;;;;;;;1999.90;999.90;;;11.00;99.90;;;;;;5048496;28;20033;-69
2023/06/28 04:02:56;;;;;;;1999.90;999.90;;;11.00;99.90;;;;;;5049514;28;20039;-71
2023/06/28 04:05:24;;;;;;;1999.90;999.90;;;11.00;99.90;;;;;;5047997;28;20135;-71
2023/06/28 04:07:57;;;;;;;1999.90;999.90;;;11.00;99.90;;;;;;5050319;28;20155;-68
2023/06/28 04:10:26;;;;;;;1999.90;999.90;;;11.00;99.90;;;;;;5046717;28;20483;-68
2023/06/28 04:12:53;;;;;;;1999.90;999.90;;;11.00;99.90;;;;;;5040802;28;20031;-71
2023/06/28 04:15:21;;;;;;;1999.90;999.90;;;11.10;99.90;;;;;;5047074;28;20036;-69
2023/06/28 04:17:49;;;;;;;1999.90;999.90;;;11.10;99.90;;;;;;5050381;28;20087;-72
2023/06/28 04:20:16;;;;;;;1999.90;999.90;;;11.20;99.90;;;;;;5046942;28;20026;-70
2023/06/28 04:22:45;;;;;;;1999.90;999.90;;;11.20;99.90;;;;;;5045575;28;20072;-68
2023/06/28 04:25:12;;;;;;;1999.90;999.90;;;11.10;99.90;;;;;;5046801;28;20029;-68
2023/06/28 04:27:40;;;;;;;1999.90;999.90;;;11.20;99.90;;;;;;5045121;28;20058;-70
2023/06/28 04:30:08;;;;;;;1999.90;999.90;;;11.10;99.90;;;;;;5045103;28;20026;-70
2023/06/28 04:32:35;;;;;;;1999.90;999.90;;;11.10;99.90;;;;;;5042674;28;20479;-70
2023/06/28 04:35:03;;;;;;;1999.90;999.90;;;11.10;99.90;;;;;;5045148;28;20119;-69
2023/06/28 04:37:31;;;;;;;1999.90;999.90;;;11.10;99.90;;;;;;5041346;28;20484;-70
2023/06/28 04:39:59;;;;;;;1999.90;999.90;;;11.20;99.90;;;;;;5043038;28;20086;-71
2023/06/28 04:42:27;;;;;;;1999.90;999.90;;;11.20;99.90;;;;;;5047614;28;20052;-71
2023/06/28 04:44:59;;;;;;;1999.90;999.90;;;11.30;99.90;;;;;;5043199;28;20029;-70
2023/06/28 04:47:29;;;;;;;1999.90;999.90;;;11.30;99.90;;;;;;5044887;28;20039;-70
2023/06/28 04:49:57;;;;;;;1999.90;999.90;;;11.30;99.90;;;;;;5042906;28;20331;-70
2023/06/28 04:52:25;;;;;;;1999.90;999.90;;;11.30;99.90;;;;;;5049606;28;20132;-69
2023/06/28 04:54:52;;;;;;;1999.90;999.90;;;11.30;99.90;;;;;;5050740;28;20040;-72
2023/06/28 04:57:20;;;;;;;1999.90;999.90;;;11.40;99.90;;;;;;5046569;28;20023;-71
2023/06/28 04:59:48;;;;;;;1999.90;999.90;;;11.40;99.90;;;;;;5039343;28;20056;-72
2023/06/28 05:02:15;;;;;;;1999.90;999.90;;;11.40;99.90;;;;;;5040751;28;20036;-71
2023/06/28 05:04:43;;;;;;;1999.90;999.90;;;11.40;99.90;;;;;;5039572;28;20249;-71
2023/06/28 05:07:11;;;;;;;1999.90;999.90;;;11.40;99.90;;;;;;5046303;28;20094;-71
2023/06/28 05:09:39;;;;;;;1999.90;999.90;;;11.40;99.90;;;;;;5047778;28;20020;-69
2023/06/28 05:12:06;;;;;;;1999.90;999.90;;;11.40;99.90;;;;;;5043551;28;20029;-72
2023/06/28 05:14:34;;;;;;;1999.90;999.90;;;11.50;99.90;;;;;;5043967;28;20049;-70
2023/06/28 05:17:02;;;;;;;1999.90;999.90;;;11.50;99.90;;;;;;5044813;28;20037;-71
2023/06/28 05:19:29;;;;;;;1999.90;999.90;;;11.60;99.90;;;;;;5045742;28;20028;-72
2023/06/28 05:21:56;;;;;;;1999.90;999.90;;;11.50;99.90;;;;;;5040718;28;20036;-72
2023/06/28 05:24:24;;;;;;;1999.90;999.90;;;11.50;99.90;;;;;;5037994;28;20025;-72
2023/06/28 05:26:51;;;;;;;1999.90;999.90;;;11.50;99.90;;;;;;5051775;28;20547;-72
2023/06/28 05:29:19;;;;;;;1999.90;999.90;;;11.50;99.90;;;;;;5047485;28;20021;-70
2023/06/28 05:31:46;;;;;;;1999.90;999.90;;;11.60;99.90;;;;;;5051036;28;20095;-71
2023/06/28 05:34:14;;;;;;;1999.90;999.90;;;11.60;99.90;;;;;;5046196;28;20021;-71
2023/06/28 05:36:41;;;;;;;1999.90;999.90;;;11.60;99.90;;;;;;5050290;28;20079;-71
2023/06/28 05:39:09;;;;;;;1999.90;999.90;;;11.60;99.90;;;;;;5037054;28;20025;-71
2023/06/28 05:41:37;;;;;;;1999.90;999.90;;;11.60;99.90;;;;;;5049056;28;20115;-71
2023/06/28 05:44:04;;;;;;;1999.90;999.90;;;11.50;99.90;;;;;;5047015;28;20075;-71
2023/06/28 05:46:32;;;;;;;1999.90;999.90;;;11.50;99.90;;;;;;5046937;28;20044;-72
2023/06/28 05:49:00;;;;;;;1999.90;999.90;;;11.50;99.90;;;;;;5049808;28;20025;-70
2023/06/28 05:51:28;;;;;;;1999.90;999.90;;;11.40;99.90;;;;;;5057564;28;20025;-69
2023/06/28 05:53:55;;;;;;;1999.90;999.90;;;11.40;99.90;;;;;;5045282;28;20060;-69
2023/06/28 05:56:22;;;;;;;1999.90;999.90;;;11.30;99.90;;;;;;5046716;28;20040;-69
2023/06/28 05:58:50;;;;;;;1999.90;999.90;;;11.30;99.90;;;;;;5051406;28;20021;-69
2023/06/28 06:01:17;;;;;;;1999.90;999.90;;;11.30;99.90;;;;;;5042061;28;20033;-69
2023/06/28 06:03:44;;;;;;;1999.90;999.90;;;11.40;99.90;;;;;;5052458;28;20057;-69
2023/06/28 06:06:12;;;;;;;1999.90;999.90;;;11.40;99.90;;;;;;5048331;28;20470;-69
2023/06/28 06:08:39;;;;;;;1999.90;999.90;;;11.40;99.90;;;;;;5043393;28;20792;-70
2023/06/28 06:11:06;;;;;;;1999.90;999.90;;;11.30;99.90;;;;;;5048723;28;20062;-68
2023/06/28 06:13:34;;;;;;;1999.90;999.90;;;11.30;99.90;;;;;;5041581;28;20378;-68
2023/06/28 06:16:01;;;;;;;1999.90;999.90;;;11.30;99.90;;;;;;5048183;28;20051;-69
2023/06/28 06:18:29;;;;;;;1999.90;999.90;;;11.30;99.90;;;;;;5055308;28;20327;-68
2023/06/28 06:20:56;;;;;;;1999.90;999.90;;;11.30;99.90;;;;;;5046706;28;20029;-72
2023/06/28 06:23:23;;;;;;;1999.90;999.90;;;11.30;99.90;;;;;;5047070;28;20028;-69
2023/06/28 06:25:51;;;;;;;1999.90;999.90;;;11.30;99.90;;;;;;5046674;28;20110;-71
2023/06/28 06:28:18;;;;;;;1999.90;999.90;;;11.20;99.90;;;;;;5049815;28;20159;-71
2023/06/28 06:30:45;;;;;;;1999.90;999.90;;;11.20;99.90;;;;;;5046608;28;20127;-71
2023/06/28 06:33:13;;;;;;;1999.90;999.90;;;11.20;99.90;;;;;;5060500;28;20021;-69
2023/06/28 06:35:40;;;;;;;1999.90;999.90;;;11.20;99.90;;;;;;5047918;28;20056;-69
2023/06/28 06:38:08;;;;;;;1999.90;999.90;;;11.20;99.90;;;;;;5051539;28;20070;-70
2023/06/28 06:40:35;;;;;;;1999.90;999.90;;;11.20;99.90;;;;;;5048641;28;20409;-70
2023/06/28 06:43:02;;;;;;;1999.90;999.90;;;11.20;99.90;;;;;;5054050;28;20040;-70
2023/06/28 06:45:30;;;;;;;1999.90;999.90;;;11.10;99.90;;;;;;5054271;28;20020;-67
2023/06/28 06:47:57;;;;;;;1999.90;999.90;;;11.10;99.90;;;;;;5057035;28;20491;-68
2023/06/28 06:50:24;;;;;;;1999.90;999.90;;;11.20;99.90;;;;;;5046206;28;20029;-69
2023/06/28 06:52:52;;;;;;;1999.90;999.90;;;11.10;99.90;;;;;;5043577;28;20127;-68
2023/06/28 06:55:19;;;;;;;1999.90;999.90;;;11.10;99.90;;;;;;5051547;28;20025;-69
2023/06/28 06:57:46;;;;;;;1999.90;999.90;;;11.10;99.90;;;;;;5055773;28;20409;-69
2023/06/28 07:00:16;;;;;;;1999.90;999.90;;;11.10;99.90;;;;;;5052596;28;20029;-69
2023/06/28 07:02:43;;;;;;;1999.90;999.90;;;11.00;99.90;;;;;;5055308;28;20054;-69
2023/06/28 07:05:10;;;;;;;1999.90;999.90;;;11.00;99.90;;;;;;5041178;28;20052;-71
2023/06/28 07:07:38;;;;;;;1999.90;999.90;;;11.00;99.90;;;;;;5053105;28;20086;-69
2023/06/28 07:10:06;;;;;;;1999.90;999.90;;;11.00;99.90;;;;;;5052190;28;20055;-68
2023/06/28 07:12:34;;;;;;;1999.90;999.90;;;11.00;99.90;;;;;;5055696;28;20024;-69
2023/06/28 07:15:01;;;;;;;1999.90;999.90;;;11.00;99.90;;;;;;5052453;28;20135;-69
2023/06/28 07:17:30;;;;;;;1999.90;999.90;;;11.00;99.90;;;;;;5051096;28;20472;-69
2023/06/28 07:19:58;;;;;;;1999.90;999.90;;;11.00;99.90;;;;;;5045004;28;20043;-69
2023/06/28 07:22:27;;;;;;;1999.90;999.90;;;11.00;99.90;;;;;;5052354;28;20040;-69
2023/06/28 07:24:54;;;;;;;1999.90;999.90;;;11.00;99.90;;;;;;5053293;28;20047;-69
2023/06/28 07:27:21;;;;;;;1999.90;999.90;;;11.00;99.90;;;;;;5051741;28;20104;-70
2023/06/28 07:29:49;;;;;;;1999.90;999.90;;;11.00;99.90;;;;;;5043177;28;20063;-69
2023/06/28 07:32:16;;;;;;;1999.90;999.90;;;11.00;99.90;;;;;;5052303;28;20137;-68
2023/06/28 07:34:43;;;;;;;1999.90;999.90;;;11.00;99.90;;;;;;5049390;28;20017;-69
2023/06/28 07:37:11;;;;;;;1999.90;999.90;;;11.00;99.90;;;;;;5056982;28;21180;-68
2023/06/28 07:39:38;;;;;;;1999.90;999.90;;;11.00;99.90;;;;;;5049597;28;20416;-69
2023/06/28 07:42:06;;;;;;;1999.90;999.90;;;11.00;99.90;;;;;;5054248;28;20127;-68
2023/06/28 07:44:33;;;;;;;1999.90;999.90;;;11.00;99.90;;;;;;5052454;28;20026;-68
2023/06/28 07:47:00;;;;;;;1999.90;999.90;;;11.00;99.90;;;;;;5053583;28;20475;-70
2023/06/28 07:49:28;;;;;;;1999.90;999.90;;;10.90;99.90;;;;;;5044460;28;20082;-71
2023/06/28 07:51:55;;;;;;;1999.90;999.90;;;11.00;99.90;;;;;;5051502;28;20029;-70
2023/06/28 07:54:23;;;;;;;1999.90;999.90;;;11.00;99.90;;;;;;5052212;28;20109;-70
2023/06/28 07:56:51;;;;;;;1999.90;999.90;;;11.00;99.90;;;;;;5067135;28;20025;-69
2023/06/28 07:59:20;;;;;;;1999.90;999.90;;;11.00;99.90;;;;;;5045946;28;20104;-70
2023/06/28 08:01:49;;;;;;;1999.90;999.90;;;11.00;99.90;;;;;;5044194;28;20041;-69
2023/06/28 08:04:17;;;;;;;1999.90;999.90;;;11.00;99.90;;;;;;5053859;28;20741;-68
2023/06/28 08:06:45;;;;;;;1999.90;999.90;;;10.90;99.90;;;;;;5048052;28;20045;-68
2023/06/28 08:09:12;;;;;;;1999.90;999.90;;;10.90;99.90;;;;;;5046397;28;20078;-69
2023/06/28 08:11:40;;;;;;;1999.90;999.90;;;10.90;99.90;;;;;;5046698;28;20025;-70
2023/06/28 08:14:12;;;;;;;1999.90;999.90;;;10.80;99.90;;;;;;5045865;28;20029;-72
2023/06/28 08:16:40;;;;;;;1999.90;999.90;;;10.80;99.90;;;;;;5044540;28;20029;-69
2023/06/28 08:19:07;;;;;;;1999.90;999.90;;;10.90;99.90;;;;;;5048928;28;20033;-67
2023/06/28 08:21:36;;;;;;;1999.90;999.90;;;10.90;99.90;;;;;;5050729;28;20052;-67
2023/06/28 08:24:04;;;;;;;1999.90;999.90;;;10.90;99.90;;;;;;5061841;28;20071;-69
2023/06/28 08:26:31;;;;;;;1999.90;999.90;;;10.90;99.90;;;;;;5049444;28;20052;-68
2023/06/28 08:28:58;;;;;;;1999.90;999.90;;;10.90;99.90;;;;;;5051157;28;20021;-69
2023/06/28 08:31:26;;;;;;;1999.90;999.90;;;10.90;99.90;;;;;;5045617;28;20113;-68
2023/06/28 08:33:53;;;;;;;1999.90;999.90;;;10.80;99.90;;;;;;5049921;28;20074;-69
2023/06/28 08:36:21;;;;;;;1999.90;999.90;;;10.80;99.90;;;;;;5055051;28;20097;-68
2023/06/28 08:38:48;;;;;;;1999.90;999.90;;;10.80;99.90;;;;;;5051065;28;20058;-69
2023/06/28 08:41:18;;;;;;;1999.90;999.90;;;10.80;99.90;;;;;;5054979;28;20043;-70
2023/06/28 08:43:53;;;;;;;1999.90;999.90;;;10.80;99.90;;;;;;5058448;28;20505;-70
2023/06/28 08:46:21;;;;;;;1999.90;999.90;;;10.80;99.90;;;;;;5052124;28;20032;-69
2023/06/28 08:48:51;;;;;;;1999.90;999.90;;;10.80;99.90;;;;;;5052343;28;20033;-69
2023/06/28 08:51:18;;;;;;;1999.90;999.90;;;10.80;99.90;;;;;;5054282;28;20032;-70
2023/06/28 08:53:49;;;;;;;1999.90;999.90;;;10.80;99.90;;;;;;5058085;28;20036;-69
2023/06/28 08:56:16;;;;;;;1999.90;999.90;;;10.80;99.90;;;;;;5055961;28;20040;-70
2023/06/28 08:58:48;;;;;;;1999.90;999.90;;;10.80;99.90;;;;;;5057986;28;20028;-68
2023/06/28 09:01:16;;;;;;;1999.90;999.90;;;10.80;99.90;;;;;;5053047;28;20827;-70
2023/06/28 09:03:44;;;;;;;1999.90;999.90;;;10.80;99.90;;;;;;5055515;28;20040;-70
2023/06/28 09:06:11;;;;;;;1999.90;999.90;;;10.80;99.90;;;;;;5052590;28;20055;-70
2023/06/28 09:08:39;;;;;;;1999.90;999.90;;;10.80;99.90;;;;;;5059891;28;20029;-70
2023/06/28 09:11:07;;;;;;;1999.90;999.90;;;10.70;99.90;;;;;;5055801;28;20387;-70
2023/06/28 09:13:34;;;;;;;1999.90;999.90;;;10.70;99.90;;;;;;5058913;28;20056;-69
2023/06/28 09:16:02;;;;;;;1999.90;999.90;;;10.60;99.90;;;;;;5054359;28;20033;-70
2023/06/28 09:18:30;;;;;;;1999.90;999.90;;;10.50;99.90;;;;;;5051756;28;20025;-70
2023/06/28 09:20:57;;;;;;;1999.90;999.90;;;10.50;99.90;;;;;;5053808;28;20025;-69
2023/06/28 09:23:30;;;;;;;1999.90;999.90;;;10.50;99.90;;;;;;5054734;28;20029;-69
2023/06/28 09:25:58;;;;;;;1999.90;999.90;;;10.50;99.90;;;;;;5054897;28;20040;-70
2023/06/28 09:28:33;;;;;;;1999.90;999.90;;;10.50;99.90;;;;;;5057732;28;20052;-69
2023/06/28 09:31:04;;;;;;;1999.90;999.90;;;10.50;99.90;;;;;;5051970;28;20032;-68
2023/06/28 09:33:33;;;;;;;1999.90;999.90;;;10.50;99.90;;;;;;5052873;28;20037;-69
2023/06/28 09:36:04;;;;;;;1999.90;999.90;;;10.50;99.90;;;;;;5055376;28;20024;-70
2023/06/28 09:38:33;;;;;;;1999.90;999.90;;;10.50;99.90;;;;;;5057766;28;20036;-69
2023/06/28 09:41:05;;;;;;;1999.90;999.90;;;10.50;99.90;;;;;;5059892;28;20024;-69
2023/06/28 09:43:33;;;;;;;1999.90;999.90;;;10.50;99.90;;;;;;5059810;28;20032;-70
2023/06/28 09:46:17;;;;;;;1999.90;999.90;;;10.50;99.90;;;;;;5043969;28;20021;-70
2023/06/28 09:48:49;;;;;;;1999.90;999.90;;;10.50;99.90;;;;;;5055184;28;20094;-68
2023/06/28 09:51:18;;;;;;;1999.90;999.90;;;10.50;99.90;;;;;;5048473;28;20052;-68
2023/06/28 09:53:49;;;;;;;1999.90;999.90;;;10.50;99.90;;;;;;5055342;28;20029;-68
2023/06/28 09:56:17;;;;;;;1999.90;999.90;;;10.50;99.90;;;;;;5057388;28;20036;-69
2023/06/28 09:58:47;;;;;;;1999.90;999.90;;;10.50;99.90;;;;;;5057291;28;20040;-69
2023/06/28 10:01:18;;;;;;;1999.90;999.90;;;10.50;99.90;;;;;;5051262;28;20025;-70
2023/06/28 10:03:46;;;;;;;1999.90;999.90;;;10.50;99.90;;;;;;5062840;28;20117;-69
2023/06/28 10:06:15;;;;;;;1999.90;999.90;;;10.50;99.90;;;;;;5047872;28;20128;-70
2023/06/28 10:08:43;;;;;;;1999.90;999.90;;;10.50;99.90;;;;;;5051250;28;20033;-68
2023/06/28 10:11:16;;;;;;;1999.90;999.90;;;10.50;99.90;;;;;;5046981;28;20092;-70
2023/06/28 10:13:46;;;;;;;1999.90;999.90;;;10.60;99.90;;;;;;5053740;28;20523;-69
2023/06/28 10:16:22;;;;;;;1999.90;999.90;;;10.60;99.90;;;;;;5050504;28;20508;-70
2023/06/28 10:18:50;;;;;;;1999.90;999.90;;;10.60;99.90;;;;;;5066368;28;20028;-70
2023/06/28 10:21:18;;;;;;;1999.90;999.90;;;10.50;99.90;;;;;;5049071;28;20185;-70
2023/06/28 10:23:46;;;;;;;1999.90;999.90;;;10.50;99.90;;;;;;5064158;28;20494;-69
2023/06/28 10:26:17;;;;;;;1999.90;999.90;;;10.50;99.90;;;;;;5059546;28;20482;-69
2023/06/28 10:28:45;;;;;;;1999.90;999.90;;;10.50;99.90;;;;;;5057917;28;20029;-70
2023/06/28 10:31:14;;;;;;;1999.90;999.90;;;10.40;99.90;;;;;;5059287;28;20021;-69
2023/06/28 10:33:41;;;;;;;1999.90;999.90;;;10.50;99.90;;;;;;5041850;28;20112;-69
2023/06/28 10:36:09;;;;;;;1999.90;999.90;;;10.50;99.90;;;;;;5056249;28;20020;-69
2023/06/28 10:38:45;;;;;;;1999.90;999.90;;;10.40;99.90;;;;;;5058071;28;20040;-70
2023/06/28 10:41:15;;;;;;;;;;;10.40;99.90;;;;;;5053676;28;20105;-69
2023/06/28 10:43:43;;;;;;;1999.90;999.90;;;10.30;99.90;;;;;;5054552;28;19913;-68
2023/06/28 10:46:26;;;;;;;1999.90;999.90;;;10.30;99.90;;;;;;5045015;28;20460;-69
2023/06/28 10:48:59;;;;;;;1999.90;999.90;;;10.30;99.90;;;;;;5055025;28;20028;-69
2023/06/28 10:51:34;;;;;;;1999.90;999.90;;;10.30;99.90;;;;;;5049711;28;20032;-69
2023/06/28 10:54:13;;;;;;;1999.90;999.90;;;10.20;99.90;;;;;;5046102;28;20033;-68
2023/06/28 10:56:50;;;;;;;1999.90;999.90;;;10.20;99.90;;;;;;5053208;28;20111;-68
2023/06/28 10:59:19;;;;;;;1999.90;999.90;;;10.20;99.90;;;;;;5057225;28;20040;-69
2023/06/28 11:01:57;;;;;;;1999.90;999.90;;;10.20;99.90;;;;;;5051966;28;20045;-67
2023/06/28 11:04:26;;;;;;;1999.90;999.90;;;10.20;99.90;;;;;;5049616;28;20021;-68
2023/06/28 11:07:17;;;;;;;1999.90;999.90;;;10.20;99.90;;;;;;5048120;28;20037;-68
2023/06/28 11:10:16;;;;;;;1999.90;999.90;;;10.20;99.90;;;;;;5035964;28;20540;-69
2023/06/28 11:12:52;;;;;;;1999.90;999.90;;;10.30;99.90;;;;;;5051276;28;20022;-69
2023/06/28 11:15:28;;;;;;;1999.90;999.90;;;10.30;99.90;;;;;;5049171;28;20034;-69
2023/06/28 11:18:06;;;;;;;1999.90;999.90;;;10.30;99.90;;;;;;5058349;28;20077;-68
2023/06/28 11:20:44;;;;;;;1999.90;999.90;;;10.30;99.90;;;;;;5046853;28;20021;-69
2023/06/28 11:23:43;;;;;;;1999.90;999.90;;;10.30;99.90;;;;;;5053790;28;20040;-68
2023/06/28 11:26:37;;;;;;;1999.90;999.90;;;10.30;99.90;;;;;;5043918;28;20041;-69
2023/06/28 11:29:24;;;;;;;1999.90;999.90;;;10.40;99.90;;;;;;5045357;28;20111;-68
2023/06/28 11:31:52;;;;;;;1999.90;999.90;;;10.40;99.90;;;;;;5045166;28;20057;-68
2023/06/28 11:34:20;;;;;;;1999.90;999.90;;;10.40;99.90;;;;;;5051056;28;20025;-68
2023/06/28 11:36:49;;;;;;;1999.90;999.90;;;10.40;99.90;;;;;;5047436;28;20041;-70
2023/06/28 11:39:18;;;;;;;1999.90;999.90;;;10.40;99.90;;;;;;5051132;28;20376;-70
2023/06/28 11:41:46;;;;;;;1999.90;999.90;;;10.40;99.90;;;;;;5042961;28;20037;-69
2023/06/28 11:44:14;;;;;;;1999.90;999.90;;;10.40;99.90;;;;;;5051049;28;20120;-70
2023/06/28 11:46:45;;;;;;;1999.90;999.90;;;10.40;99.90;;;;;;5049949;28;20052;-68
2023/06/28 11:49:15;;;;;;;1999.90;999.90;;;10.40;99.90;;;;;;5053707;28;20021;-72
2023/06/28 11:51:43;;;;;;;1999.90;999.90;;;10.50;99.90;;;;;;5046523;28;20116;-70
2023/06/28 11:54:12;;;;;;;1999.90;999.90;;;10.50;99.90;;;;;;5049748;28;20147;-69
2023/06/28 11:56:49;;;;;;;1999.90;999.90;;;10.50;99.90;;;;;;5056121;28;20036;-69
2023/06/28 11:59:16;;;;;;;1999.90;999.90;;;10.40;99.90;;;;;;5058460;28;20029;-69
2023/06/28 12:01:45;;;;;;;1999.90;999.90;;;10.40;99.90;;;;;;5052860;28;20190;-69
2023/06/28 12:04:20;;;;;;;1999.90;999.90;;;10.40;99.90;;;;;;5056496;28;20025;-68
2023/06/28 12:06:48;;;;;;;1999.90;999.90;;;10.40;99.90;;;;;;5055308;28;20533;-68